Time;durP1;ratioP1;P1;durP2;ratioP2;P2;SDS_P1;SDS_P2;PMS_P1;PMS_P2;Temp;Humidity;BMP_temperature;BMP_pressure;BME280_temperature;BME280_humidity;BME280_pressure;Samples;Min_cycle;Max_cycle;Signal;HPM_P1;HPM_P2
2023/06/11 00:00:04;;;;;;;22.60;20.60;;;15.20;99.90;;;;;;5087442;28;20066;-71
2023/06/11 00:02:33;;;;;;;23.58;21.38;;;15.20;99.90;;;;;;5085393;28;20567;-72
2023/06/11 00:05:07;;;;;;;24.15;21.65;;;15.20;99.90;;;;;;5083395;28;20139;-70
2023/06/11 00:07:37;;;;;;;26.33;23.73;;;15.00;99.90;;;;;;5081301;28;20123;-70
2023/06/11 00:10:07;;;;;;;27.92;24.95;;;14.80;99.90;;;;;;5085965;28;20067;-69
2023/06/11 00:12:34;;;;;;;29.65;23.63;;;14.80;99.90;;;;;;5084468;28;20080;-71
2023/06/11 00:15:04;;;;;;;27.17;23.80;;;14.70;99.90;;;;;;5084023;28;20043;-71
2023/06/11 00:17:32;;;;;;;25.67;23.13;;;14.70;99.90;;;;;;5082621;28;20070;-70
2023/06/11 00:20:03;;;;;;;23.05;20.67;;;14.50;99.90;;;;;;5078318;28;20040;-69
2023/06/11 00:22:31;;;;;;;23.95;21.58;;;14.40;99.90;;;;;;5082487;28;20502;-69
2023/06/11 00:24:58;;;;;;;24.90;22.20;;;14.30;99.90;;;;;;5063952;28;20613;-72
2023/06/11 00:27:25;;;;;;;24.10;21.55;;;14.10;99.90;;;;;;5070027;28;20573;-69
2023/06/11 00:29:53;;;;;;;25.33;21.80;;;14.10;99.90;;;;;;5083902;28;20070;-70
2023/06/11 00:32:20;;;;;;;23.23;20.73;;;14.20;99.90;;;;;;5071351;28;20535;-72
2023/06/11 00:34:47;;;;;;;24.33;20.02;;;14.20;99.90;;;;;;5045539;28;20040;-70
2023/06/11 00:37:14;;;;;;;32.58;20.40;;;14.10;99.90;;;;;;5081776;28;20868;-70
2023/06/11 00:39:41;;;;;;;22.13;19.80;;;14.00;99.90;;;;;;5069843;28;20052;-71
2023/06/11 00:42:10;;;;;;;22.63;20.10;;;14.00;99.90;;;;;;5065513;28;20080;-70
2023/06/11 00:44:36;;;;;;;21.40;19.15;;;13.80;99.90;;;;;;5084107;28;20538;-73
2023/06/11 00:47:03;;;;;;;22.80;20.40;;;13.80;99.90;;;;;;5063195;28;20543;-70
2023/06/11 00:49:31;;;;;;;22.13;19.92;;;13.70;99.90;;;;;;5077767;28;20040;-69
2023/06/11 00:51:58;;;;;;;22.67;19.90;;;13.70;99.90;;;;;;5065005;28;20138;-70
2023/06/11 00:54:25;;;;;;;23.20;17.42;;;13.90;99.90;;;;;;5072185;28;20036;-71
2023/06/11 00:56:53;;;;;;;18.38;16.42;;;14.00;99.90;;;;;;5087134;28;20075;-70
2023/06/11 00:59:20;;;;;;;20.65;18.80;;;14.50;99.90;;;;;;5055954;28;20068;-69
2023/06/11 01:02:12;;;;;;;21.70;19.95;;;15.20;99.90;;;;;;5072590;28;20137;-71
2023/06/11 01:04:41;;;;;;;22.17;20.38;;;15.70;99.90;;;;;;5085946;28;20480;-72
2023/06/11 01:07:12;;;;;;;23.20;21.42;;;16.20;99.90;;;;;;5083281;28;20519;-71
2023/06/11 01:09:40;;;;;;;24.98;22.70;;;16.50;99.90;;;;;;5066458;28;20052;-71
2023/06/11 01:12:08;;;;;;;25.35;23.42;;;16.70;99.90;;;;;;5082540;28;20225;-71
2023/06/11 01:14:36;;;;;;;24.08;22.27;;;16.70;99.90;;;;;;5091126;27;20134;-72
2023/06/11 01:17:10;;;;;;;25.20;23.15;;;16.70;99.90;;;;;;5077332;28;20074;-71
2023/06/11 01:19:59;;;;;;;24.23;22.33;;;16.70;99.90;;;;;;5069994;28;20482;-72
2023/06/11 01:22:29;;;;;;;24.10;22.30;;;16.70;99.90;;;;;;5060220;28;20223;-72
2023/06/11 01:25:22;;;;;;;24.25;22.35;;;16.50;99.90;;;;;;5072268;28;20142;-71
2023/06/11 01:28:03;;;;;;;24.42;22.65;;;16.60;99.90;;;;;;5083856;28;20048;-72
2023/06/11 01:30:32;;;;;;;25.05;23.00;;;16.60;99.90;;;;;;5061188;28;20053;-72
2023/06/11 01:33:01;;;;;;;26.13;24.13;;;16.80;99.90;;;;;;5065486;28;20260;-72
2023/06/11 01:35:34;;;;;;;26.05;24.15;;;16.90;99.90;;;;;;5052619;28;20054;-69
2023/06/11 01:38:02;;;;;;;25.83;23.70;;;16.90;99.90;;;;;;5071076;28;20075;-69
2023/06/11 01:40:48;;;;;;;25.88;23.98;;;17.10;99.90;;;;;;5083720;28;20047;-70
2023/06/11 01:43:15;;;;;;;25.92;23.83;;;17.20;99.90;;;;;;5064508;28;20063;-70
2023/06/11 01:45:43;;;;;;;26.13;24.08;;;17.30;99.90;;;;;;5055941;28;20052;-71
2023/06/11 01:48:10;;;;;;;27.35;25.08;;;17.30;99.90;;;;;;5064906;28;20063;-70
2023/06/11 01:50:38;;;;;;;27.20;25.00;;;17.30;99.90;;;;;;5069800;28;20425;-70
2023/06/11 01:53:09;;;;;;;27.52;25.35;;;17.40;99.90;;;;;;5090543;28;20036;-70
2023/06/11 01:55:36;;;;;;;26.45;24.48;;;17.40;99.90;;;;;;5066543;28;20570;-70
2023/06/11 01:58:03;;;;;;;26.88;24.88;;;17.40;99.90;;;;;;5064147;28;20505;-70
2023/06/11 02:00:32;;;;;;;27.92;25.25;;;17.50;99.90;;;;;;5066442;28;20048;-71
2023/06/11 02:03:01;;;;;;;27.48;25.27;;;17.40;99.90;;;;;;5070110;28;20047;-68
2023/06/11 02:05:29;;;;;;;26.65;24.67;;;17.40;99.90;;;;;;5068700;28;20055;-71
2023/06/11 02:07:56;;;;;;;26.52;24.63;;;17.30;99.90;;;;;;5065531;28;20092;-70
2023/06/11 02:10:22;;;;;;;27.35;25.25;;;17.40;99.90;;;;;;5063715;28;20056;-73
2023/06/11 02:12:49;;;;;;;26.77;24.77;;;17.30;99.90;;;;;;5078432;28;20071;-70
2023/06/11 02:15:17;;;;;;;27.08;25.08;;;17.40;99.90;;;;;;5067095;28;20078;-70
2023/06/11 02:17:44;;;;;;;27.85;25.88;;;17.30;99.90;;;;;;5069166;28;20036;-70
2023/06/11 02:20:12;;;;;;;28.13;26.02;;;17.40;99.90;;;;;;5065611;28;20104;-70
2023/06/11 02:22:39;;;;;;;28.08;25.55;;;17.20;99.90;;;;;;5071284;28;20040;-70
2023/06/11 02:25:06;;;;;;;27.35;25.05;;;17.20;99.90;;;;;;5060463;28;20545;-71
2023/06/11 02:27:33;;;;;;;27.45;25.10;;;17.20;99.90;;;;;;5069916;28;20046;-70
2023/06/11 02:30:01;;;;;;;27.58;25.30;;;17.10;99.90;;;;;;5067878;28;20063;-69
2023/06/11 02:32:28;;;;;;;27.50;25.15;;;17.10;99.90;;;;;;5089047;28;20042;-70
2023/06/11 02:34:55;;;;;;;26.52;24.55;;;17.10;99.90;;;;;;5087738;28;20525;-70
2023/06/11 02:37:22;;;;;;;27.83;25.55;;;17.00;99.90;;;;;;5065437;28;20047;-70
2023/06/11 02:39:49;;;;;;;27.27;25.17;;;17.00;99.90;;;;;;5064022;28;20488;-70
2023/06/11 02:42:16;;;;;;;26.50;24.38;;;16.90;99.90;;;;;;5049725;28;21017;-71
2023/06/11 02:44:42;;;;;;;27.58;25.33;;;16.90;99.90;;;;;;5083671;28;20480;-71
2023/06/11 02:47:09;;;;;;;27.95;25.90;;;16.90;99.90;;;;;;5086594;28;20047;-72
2023/06/11 02:49:36;;;;;;;28.02;25.92;;;16.90;99.90;;;;;;5064833;28;20051;-70
2023/06/11 02:52:03;;;;;;;28.55;26.00;;;17.00;99.90;;;;;;5077800;28;20055;-71
2023/06/11 02:54:29;;;;;;;28.52;26.33;;;17.00;99.90;;;;;;5061825;28;20055;-71
2023/06/11 02:56:56;;;;;;;28.65;26.40;;;16.90;99.90;;;;;;5085449;28;20143;-70
2023/06/11 02:59:23;;;;;;;30.15;27.65;;;16.90;99.90;;;;;;5083306;27;20456;-71
2023/06/11 03:01:50;;;;;;;27.92;25.73;;;16.90;99.90;;;;;;5068496;28;20043;-71
2023/06/11 03:04:16;;;;;;;27.98;25.77;;;16.80;99.90;;;;;;5063755;28;20054;-71
2023/06/11 03:06:43;;;;;;;29.73;27.00;;;16.50;99.90;;;;;;5064592;28;20271;-71
2023/06/11 03:09:10;;;;;;;29.83;26.98;;;16.40;99.90;;;;;;5064724;28;20531;-71
2023/06/11 03:11:37;;;;;;;27.90;25.60;;;16.20;99.90;;;;;;5065000;28;20438;-71
2023/06/11 03:14:04;;;;;;;29.20;26.52;;;16.10;99.90;;;;;;5084475;28;20217;-71
2023/06/11 03:16:31;;;;;;;28.15;25.85;;;16.10;99.90;;;;;;5061957;28;20044;-70
2023/06/11 03:18:58;;;;;;;27.90;25.80;;;16.10;99.90;;;;;;5063711;28;20326;-71
2023/06/11 03:21:25;;;;;;;28.52;26.23;;;16.20;99.90;;;;;;5059350;28;20323;-71
2023/06/11 03:23:51;;;;;;;28.00;25.67;;;16.20;99.90;;;;;;5070155;28;20114;-71
2023/06/11 03:26:20;;;;;;;28.02;25.52;;;16.10;99.90;;;;;;5063042;28;20251;-71
2023/06/11 03:28:47;;;;;;;27.98;25.60;;;16.00;99.90;;;;;;5051150;28;20063;-71
2023/06/11 03:31:17;;;;;;;29.92;27.42;;;15.90;99.90;;;;;;5062095;28;20048;-71
2023/06/11 03:33:46;;;;;;;29.30;26.75;;;15.80;99.90;;;;;;5054005;28;20464;-71
2023/06/11 03:36:14;;;;;;;29.38;27.10;;;15.70;99.90;;;;;;5064333;28;20472;-71
2023/06/11 03:38:41;;;;;;;29.17;27.00;;;15.70;99.90;;;;;;5082812;28;20140;-70
2023/06/11 03:41:10;;;;;;;29.30;26.73;;;15.60;99.90;;;;;;5062363;28;20671;-72
2023/06/11 03:43:37;;;;;;;28.63;26.25;;;15.60;99.90;;;;;;5065750;28;20435;-71
2023/06/11 03:46:04;;;;;;;30.08;27.20;;;15.50;99.90;;;;;;5082825;28;20104;-71
2023/06/11 03:48:32;;;;;;;29.05;26.55;;;15.40;99.90;;;;;;5046451;28;20366;-71
2023/06/11 03:50:59;;;;;;;27.48;25.33;;;15.30;99.90;;;;;;5082713;28;20048;-71
2023/06/11 03:53:26;;;;;;;28.13;25.63;;;15.30;99.90;;;;;;5062225;28;20064;-71
2023/06/11 03:55:53;;;;;;;29.15;26.63;;;15.40;99.90;;;;;;5066692;28;20264;-71
2023/06/11 03:58:20;;;;;;;28.95;26.65;;;15.40;99.90;;;;;;5062844;28;20543;-71
2023/06/11 04:00:47;;;;;;;27.48;25.27;;;15.30;99.90;;;;;;5063143;28;20097;-70
2023/06/11 04:03:13;;;;;;;26.35;24.17;;;15.30;99.90;;;;;;5078101;28;20044;-71
2023/06/11 04:05:42;;;;;;;29.25;26.52;;;15.40;99.90;;;;;;5066507;28;20158;-70
2023/06/11 04:08:09;;;;;;;27.05;24.60;;;15.30;99.90;;;;;;5063974;28;20047;-71
2023/06/11 04:10:37;;;;;;;26.88;24.67;;;15.40;99.90;;;;;;5049551;28;20664;-71
2023/06/11 04:13:04;;;;;;;28.55;26.15;;;15.30;99.90;;;;;;5070348;28;20044;-72
2023/06/11 04:15:32;;;;;;;29.13;26.73;;;15.40;99.90;;;;;;5066186;28;20036;-71
2023/06/11 04:18:02;;;;;;;27.80;25.55;;;15.50;99.90;;;;;;5062528;28;20043;-71
2023/06/11 04:20:31;;;;;;;26.42;24.42;;;15.50;99.90;;;;;;5063929;28;20066;-71
2023/06/11 04:22:58;;;;;;;26.83;24.42;;;15.40;99.90;;;;;;5066079;28;20051;-71
2023/06/11 04:25:25;;;;;;;28.67;26.27;;;15.50;99.90;;;;;;5057213;28;20048;-71
2023/06/11 04:27:53;;;;;;;28.83;26.42;;;15.60;99.90;;;;;;5066910;28;20043;-71
2023/06/11 04:30:21;;;;;;;27.40;25.20;;;15.80;99.90;;;;;;5066557;28;20127;-71
2023/06/11 04:32:54;;;;;;;29.15;26.77;;;15.90;99.90;;;;;;5088578;28;20332;-72
2023/06/11 04:35:24;;;;;;;30.17;27.77;;;16.40;99.90;;;;;;5072078;28;20493;-72
2023/06/11 04:37:52;;;;;;;30.70;28.17;;;16.90;99.90;;;;;;5068263;28;20242;-72
2023/06/11 04:40:23;;;;;;;31.70;29.30;;;17.20;99.90;;;;;;5072774;28;20035;-71
2023/06/11 04:42:51;;;;;;;31.83;29.13;;;17.50;99.90;;;;;;5068774;28;20497;-71
2023/06/11 04:45:18;;;;;;;31.20;28.67;;;17.80;99.90;;;;;;5071311;28;20460;-71
2023/06/11 04:47:46;;;;;;;31.60;29.17;;;17.90;99.90;;;;;;5086320;28;20131;-70
2023/06/11 04:50:20;;;;;;;31.73;29.20;;;18.00;99.90;;;;;;5069059;28;20035;-70
2023/06/11 04:52:51;;;;;;;30.15;27.88;;;18.10;99.90;;;;;;5067660;28;20121;-71
2023/06/11 04:55:24;;;;;;;30.90;28.55;;;18.30;99.90;;;;;;5083042;28;20256;-71
2023/06/11 04:57:54;;;;;;;31.50;28.98;;;18.30;99.90;;;;;;5059134;28;20327;-71
2023/06/11 05:00:23;;;;;;;31.80;29.35;;;18.50;99.90;;;;;;5068458;28;20063;-70
2023/06/11 05:02:51;;;;;;;31.92;29.05;;;18.60;99.90;;;;;;5070338;28;20047;-71
2023/06/11 05:05:18;;;;;;;31.45;28.95;;;18.60;99.90;;;;;;5063527;28;20066;-71
2023/06/11 05:07:46;;;;;;;29.98;27.73;;;18.60;99.90;;;;;;5073307;28;20061;-71
2023/06/11 05:10:15;;;;;;;30.95;28.42;;;18.60;99.90;;;;;;5064066;28;20056;-71
2023/06/11 05:12:42;;;;;;;31.75;29.33;;;18.70;99.90;;;;;;5048679;28;20044;-70
2023/06/11 05:15:09;;;;;;;32.00;29.13;;;18.80;99.90;;;;;;5068083;28;20038;-70
2023/06/11 05:17:37;;;;;;;31.02;28.55;;;18.80;99.90;;;;;;5072750;28;20131;-72
2023/06/11 05:20:05;;;;;;;31.35;28.73;;;18.90;99.90;;;;;;5063103;28;20051;-70
2023/06/11 05:22:32;;;;;;;33.42;29.08;;;19.10;99.90;;;;;;5062682;28;20134;-70
2023/06/11 05:24:59;;;;;;;29.98;27.70;;;19.30;99.90;;;;;;5061458;28;20047;-69
2023/06/11 05:27:29;;;;;;;31.45;28.85;;;19.50;99.90;;;;;;5071213;28;20118;-69
2023/06/11 05:29:57;;;;;;;32.17;29.55;;;19.80;99.90;;;;;;5067864;28;20163;-70
2023/06/11 05:32:23;;;;;;;30.83;28.42;;;19.80;99.90;;;;;;5066369;28;20043;-72
2023/06/11 05:34:50;;;;;;;30.50;28.00;;;19.90;99.90;;;;;;5085761;28;20510;-70
2023/06/11 05:37:21;;;;;;;31.08;28.75;;;20.20;99.90;;;;;;5059269;28;20413;-72
2023/06/11 05:39:48;;;;;;;30.48;28.23;;;20.40;99.90;;;;;;5069334;28;20573;-72
2023/06/11 05:42:16;;;;;;;31.77;29.15;;;20.50;99.90;;;;;;5069969;28;20035;-70
2023/06/11 05:44:43;;;;;;;30.33;28.05;;;20.70;99.90;;;;;;5072595;28;20506;-71
2023/06/11 05:47:13;;;;;;;31.73;29.30;;;21.00;99.90;;;;;;5065334;28;20130;-69
2023/06/11 05:49:41;;;;;;;31.10;28.70;;;21.00;99.90;;;;;;5082734;28;20056;-72
2023/06/11 05:52:08;;;;;;;31.58;29.08;;;21.40;99.90;;;;;;5057504;28;20260;-72
2023/06/11 05:54:34;;;;;;;31.60;29.10;;;21.70;99.90;;;;;;5066270;28;20032;-72
2023/06/11 05:57:02;;;;;;;31.27;28.98;;;21.70;99.90;;;;;;5069589;28;20048;-72
2023/06/11 05:59:29;;;;;;;31.60;28.80;;;21.60;99.90;;;;;;5086300;28;20105;-72
2023/06/11 06:01:56;;;;;;;31.85;29.48;;;21.70;99.90;;;;;;5066363;28;20044;-70
2023/06/11 06:04:23;;;;;;;32.03;29.40;;;21.60;99.90;;;;;;5066429;28;20534;-70
2023/06/11 06:06:50;;;;;;;30.92;28.35;;;21.00;99.90;;;;;;5082710;28;20525;-71
2023/06/11 06:09:17;;;;;;;31.13;28.75;;;20.90;99.90;;;;;;5063699;28;20044;-72
2023/06/11 06:11:43;;;;;;;31.88;29.35;;;21.10;99.90;;;;;;5087859;28;20328;-71
2023/06/11 06:14:10;;;;;;;32.45;29.95;;;21.00;99.90;;;;;;5066725;28;20040;-72
2023/06/11 06:16:38;;;;;;;31.65;29.20;;;20.90;99.90;;;;;;5067169;28;20049;-71
2023/06/11 06:19:09;;;;;;;32.22;29.80;;;21.20;99.90;;;;;;5084293;28;20040;-72
2023/06/11 06:21:35;;;;;;;31.65;29.38;;;21.20;99.90;;;;;;5061766;28;20251;-72
2023/06/11 06:24:02;;;;;;;31.58;29.10;;;21.20;99.90;;;;;;5070467;28;20048;-72
2023/06/11 06:26:30;;;;;;;31.15;28.55;;;20.80;99.90;;;;;;5074948;28;20598;-71
2023/06/11 06:28:57;;;;;;;32.28;29.67;;;21.20;99.90;;;;;;5069153;28;20054;-70
2023/06/11 06:31:24;;;;;;;32.78;29.98;;;21.60;99.90;;;;;;5063384;28;20108;-70
2023/06/11 06:33:52;;;;;;;32.65;30.30;;;21.60;99.90;;;;;;5078365;28;20130;-70
2023/06/11 06:36:22;;;;;;;31.90;29.63;;;21.60;99.90;;;;;;5068005;28;20112;-70
2023/06/11 06:38:51;;;;;;;32.42;30.00;;;21.70;99.90;;;;;;5070036;28;20101;-69
2023/06/11 06:41:18;;;;;;;31.67;29.45;;;21.50;99.90;;;;;;5068762;28;20035;-72
2023/06/11 06:43:45;;;;;;;32.95;30.45;;;21.60;99.90;;;;;;5085578;28;20553;-71
2023/06/11 06:46:15;;;;;;;32.72;30.25;;;21.70;99.90;;;;;;5065456;28;20180;-69
2023/06/11 06:48:42;;;;;;;32.80;30.33;;;21.80;99.90;;;;;;5066682;28;20073;-71
2023/06/11 06:51:09;;;;;;;33.10;30.65;;;22.10;99.90;;;;;;5068718;28;20055;-71
2023/06/11 06:53:40;;;;;;;33.85;30.98;;;22.10;99.90;;;;;;5064623;28;20082;-70
2023/06/11 06:56:08;;;;;;;31.52;29.20;;;21.90;99.90;;;;;;5069817;28;20040;-70
2023/06/11 06:58:35;;;;;;;32.47;30.08;;;21.90;99.90;;;;;;5081117;28;20048;-70
2023/06/11 07:01:02;;;;;;;31.95;29.65;;;21.80;99.90;;;;;;5058471;28;20044;-70
2023/06/11 07:03:30;;;;;;;32.03;29.58;;;22.10;99.90;;;;;;5061901;28;20051;-71
2023/06/11 07:05:56;;;;;;;30.88;28.67;;;22.20;99.90;;;;;;5068766;28;20062;-71
2023/06/11 07:08:24;;;;;;;32.58;30.27;;;22.60;99.90;;;;;;5066890;28;20066;-72
2023/06/11 07:10:53;;;;;;;32.67;30.20;;;22.30;99.90;;;;;;5053987;28;20409;-72
2023/06/11 07:13:32;;;;;;;33.10;30.42;;;22.50;99.90;;;;;;5067673;28;20276;-71
2023/06/11 07:15:59;;;;;;;32.83;30.60;;;22.70;99.90;;;;;;5060942;28;20043;-71
2023/06/11 07:18:27;;;;;;;32.92;30.38;;;22.70;99.90;;;;;;5069536;28;20446;-70
2023/06/11 07:20:54;;;;;;;34.30;31.80;;;22.50;99.90;;;;;;5069841;28;20096;-71
2023/06/11 07:23:21;;;;;;;33.58;31.05;;;22.70;99.90;;;;;;5066222;28;20068;-72
2023/06/11 07:25:49;;;;;;;32.90;30.30;;;22.80;99.90;;;;;;5067826;28;20505;-71
2023/06/11 07:28:18;;;;;;;33.60;31.00;;;23.10;99.90;;;;;;5062732;28;20143;-70
2023/06/11 07:30:45;;;;;;;34.33;31.83;;;23.20;99.90;;;;;;5067902;28;20059;-71
2023/06/11 07:33:16;;;;;;;33.05;30.38;;;23.20;99.90;;;;;;5084899;28;20052;-72
2023/06/11 07:35:45;;;;;;;33.03;30.58;;;23.30;99.90;;;;;;5054115;28;20031;-73
2023/06/11 07:38:12;;;;;;;33.97;31.42;;;23.40;99.90;;;;;;5068176;28;20044;-71
2023/06/11 07:40:40;;;;;;;33.97;31.58;;;23.50;99.90;;;;;;5058348;28;20048;-71
2023/06/11 07:43:07;;;;;;;34.58;31.85;;;23.50;99.90;;;;;;5076952;28;20048;-70
2023/06/11 07:45:34;;;;;;;34.53;32.08;;;23.50;99.90;;;;;;5061628;28;20068;-70
2023/06/11 07:48:02;;;;;;;35.28;32.65;;;23.50;99.90;;;;;;5068805;28;20122;-71
2023/06/11 07:50:30;;;;;;;34.17;31.58;;;23.60;99.90;;;;;;5085135;28;20560;-70
2023/06/11 07:52:56;;;;;;;35.78;33.17;;;23.70;99.90;;;;;;5082424;28;20079;-71
2023/06/11 07:55:26;;;;;;;35.28;32.45;;;23.90;99.90;;;;;;5062251;28;20136;-71
2023/06/11 07:57:53;;;;;;;35.22;32.53;;;23.40;99.90;;;;;;5085386;28;20048;-70
2023/06/11 08:00:20;;;;;;;35.38;32.85;;;23.40;99.90;;;;;;5082714;28;20036;-71
2023/06/11 08:02:47;;;;;;;34.50;32.15;;;23.50;99.90;;;;;;5070181;28;20615;-71
2023/06/11 08:05:19;;;;;;;34.05;31.75;;;23.50;99.90;;;;;;5083967;28;20047;-70
2023/06/11 08:07:47;;;;;;;34.50;31.73;;;23.90;99.90;;;;;;5083020;28;20545;-71
2023/06/11 08:10:14;;;;;;;35.63;33.05;;;23.80;99.90;;;;;;5079498;28;20078;-72
2023/06/11 08:12:41;;;;;;;35.50;32.90;;;24.10;99.90;;;;;;5081506;28;20237;-72
2023/06/11 08:15:08;;;;;;;36.05;33.55;;;24.70;99.90;;;;;;5086199;28;20134;-72
2023/06/11 08:17:35;;;;;;;35.13;32.63;;;24.80;99.90;;;;;;5085323;28;20519;-72
2023/06/11 08:20:06;;;;;;;34.72;32.38;;;24.90;99.90;;;;;;5077490;28;20040;-72
2023/06/11 08:22:33;;;;;;;35.90;33.28;;;25.10;99.90;;;;;;5078051;28;20050;-71
2023/06/11 08:25:00;;;;;;;35.80;33.25;;;25.30;99.90;;;;;;5083658;28;20035;-72
2023/06/11 08:27:26;;;;;;;35.03;32.72;;;25.40;99.90;;;;;;5065887;28;20442;-71
2023/06/11 08:29:53;;;;;;;35.40;33.00;;;25.00;99.90;;;;;;5084867;28;20040;-72
2023/06/11 08:32:20;;;;;;;36.83;34.25;;;24.80;99.90;;;;;;5062306;28;20299;-70
2023/06/11 08:34:47;;;;;;;36.95;34.55;;;25.00;99.90;;;;;;5061557;28;20043;-71
2023/06/11 08:37:13;;;;;;;36.65;33.95;;;25.50;99.90;;;;;;5076644;28;20032;-71
2023/06/11 08:39:41;;;;;;;35.75;33.25;;;25.40;99.90;;;;;;5069236;28;20835;-72
2023/06/11 08:42:08;;;;;;;38.40;35.53;;;25.20;99.90;;;;;;5064158;28;20040;-71
2023/06/11 08:44:35;;;;;;;36.05;33.75;;;25.30;99.90;;;;;;5085493;28;20128;-71
2023/06/11 08:47:03;;;;;;;36.33;34.03;;;25.40;99.90;;;;;;5079304;28;20040;-71
2023/06/11 08:49:31;;;;;;;34.92;32.80;;;25.20;99.90;;;;;;5084458;28;20494;-73
2023/06/11 08:52:03;;;;;;;36.50;33.85;;;25.70;99.90;;;;;;5077566;28;20060;-73
2023/06/11 08:54:30;;;;;;;37.30;34.92;;;26.00;99.90;;;;;;5079748;28;20064;-72
2023/06/11 08:56:57;;;;;;;35.03;32.75;;;25.80;99.90;;;;;;5068464;28;20147;-71
2023/06/11 08:59:24;;;;;;;37.28;34.92;;;25.20;99.90;;;;;;5062860;28;20138;-73
2023/06/11 09:01:52;;;;;;;38.60;35.97;;;25.00;99.90;;;;;;5077538;28;20040;-72
2023/06/11 09:04:20;;;;;;;37.38;34.83;;;24.70;99.90;;;;;;5083515;28;20047;-72
2023/06/11 09:06:56;;;;;;;37.90;35.30;;;25.40;99.90;;;;;;5085117;28;20338;-72
2023/06/11 09:09:23;;;;;;;38.50;34.72;;;25.90;99.90;;;;;;5084010;28;20517;-72
2023/06/11 09:11:51;;;;;;;38.53;35.95;;;25.50;99.90;;;;;;5085546;28;20513;-72
2023/06/11 09:14:17;;;;;;;38.53;35.83;;;25.90;99.90;;;;;;5083355;28;21174;-71
2023/06/11 09:16:46;;;;;;;37.50;35.00;;;26.20;99.90;;;;;;5087996;28;20040;-71
2023/06/11 09:19:16;;;;;;;37.75;35.35;;;25.90;99.90;;;;;;5069386;28;20292;-71
2023/06/11 09:21:55;;;;;;;38.60;36.20;;;25.40;99.90;;;;;;5085873;28;20536;-71
2023/06/11 09:24:23;;;;;;;39.25;36.75;;;25.50;99.90;;;;;;5089871;28;20063;-71
2023/06/11 09:26:55;;;;;;;39.97;37.13;;;25.40;99.90;;;;;;5087354;28;20079;-71
2023/06/11 09:29:23;;;;;;;35.85;33.50;;;25.80;99.90;;;;;;5086581;28;20042;-71
2023/06/11 09:32:06;;;;;;;39.03;36.70;;;26.30;99.90;;;;;;5082466;28;20044;-71
2023/06/11 09:34:55;;;;;;;40.67;38.03;;;26.40;99.90;;;;;;5093930;28;20042;-72
2023/06/11 09:37:23;;;;;;;40.35;37.75;;;26.10;99.90;;;;;;5084310;28;20150;-71
2023/06/11 09:39:50;;;;;;;40.17;37.63;;;26.30;99.90;;;;;;5090571;28;20505;-74
2023/06/11 09:42:24;;;;;;;40.40;37.80;;;25.60;99.90;;;;;;5084925;28;20435;-70
2023/06/11 09:44:51;;;;;;;40.45;37.95;;;26.20;99.90;;;;;;5071537;28;20044;-71
2023/06/11 09:47:18;;;;;;;41.60;38.70;;;26.10;99.90;;;;;;5081590;28;20123;-71
2023/06/11 09:49:45;;;;;;;39.20;36.33;;;25.90;99.90;;;;;;5079301;28;20682;-71
2023/06/11 09:52:14;;;;;;;38.33;35.83;;;25.90;99.90;;;;;;5080887;28;20044;-72
2023/06/11 09:54:42;;;;;;;38.95;36.65;;;26.40;99.90;;;;;;5070338;28;20089;-73
2023/06/11 09:57:11;;;;;;;39.78;37.13;;;26.40;99.90;;;;;;5080196;28;20048;-73
2023/06/11 09:59:39;;;;;;;41.25;38.30;;;26.70;99.90;;;;;;5073397;28;20051;-72
2023/06/11 10:02:07;;;;;;;41.55;39.08;;;26.90;99.90;;;;;;5084989;28;20036;-73
2023/06/11 10:04:34;;;;;;;39.00;36.72;;;26.60;99.90;;;;;;5085544;28;20063;-73
2023/06/11 10:07:02;;;;;;;41.28;38.35;;;26.90;99.90;;;;;;5074020;28;20046;-72
2023/06/11 10:09:31;;;;;;;40.75;38.15;;;27.20;99.90;;;;;;5081227;28;20040;-72
2023/06/11 10:11:59;;;;;;;44.47;41.88;;;27.20;99.90;;;;;;5081826;28;20101;-72
2023/06/11 10:14:26;;;;;;;42.40;39.83;;;26.60;99.90;;;;;;5065706;28;20489;-72
2023/06/11 10:16:56;;;;;;;43.70;40.95;;;26.50;99.90;;;;;;5088431;28;20034;-73
2023/06/11 10:19:23;;;;;;;43.95;41.15;;;26.70;99.90;;;;;;5088000;28;20047;-73
2023/06/11 10:21:51;;;;;;;44.15;41.25;;;26.60;99.90;;;;;;5065295;28;20044;-72
2023/06/11 10:24:25;;;;;;;44.85;41.85;;;26.40;99.90;;;;;;5085661;28;20063;-72
2023/06/11 10:27:07;;;;;;;43.28;40.72;;;26.00;99.90;;;;;;5084005;28;20071;-72
2023/06/11 10:29:47;;;;;;;44.95;42.28;;;26.40;99.90;;;;;;5085118;28;20336;-71
2023/06/11 10:32:19;;;;;;;45.47;42.45;;;26.50;99.90;;;;;;5083592;28;20040;-71
2023/06/11 10:35:04;;;;;;;44.22;41.45;;;26.60;99.90;;;;;;5083147;28;20067;-72
2023/06/11 10:37:32;;;;;;;;;;;26.80;99.90;;;;;;5085153;28;20043;-72
2023/06/11 10:39:59;;;;;;;43.78;41.38;;;27.00;99.90;;;;;;5084155;28;19920;-71
2023/06/11 10:42:28;;;;;;;45.22;42.42;;;26.80;99.90;;;;;;5082503;28;20143;-71
2023/06/11 10:44:58;;;;;;;48.00;45.03;;;26.80;99.90;;;;;;5069901;28;20051;-71
2023/06/11 10:47:28;;;;;;;45.17;42.17;;;26.60;99.90;;;;;;5087123;28;20290;-71
2023/06/11 10:50:13;;;;;;;47.97;45.17;;;26.90;99.90;;;;;;5084995;28;20048;-71
2023/06/11 10:52:59;;;;;;;40.33;37.72;;;26.90;99.90;;;;;;5085422;28;20058;-72
2023/06/11 10:55:29;;;;;;;48.35;45.38;;;27.20;99.90;;;;;;5081495;28;20344;-72
2023/06/11 10:57:58;;;;;;;40.53;37.95;;;26.80;99.90;;;;;;5085154;28;20047;-72
2023/06/11 11:00:32;;;;;;;40.35;37.55;;;26.40;99.90;;;;;;5085649;28;20401;-72
2023/06/11 11:03:03;;;;;;;47.10;44.15;;;26.20;99.90;;;;;;5087680;28;20074;-72
2023/06/11 11:05:31;;;;;;;46.60;43.55;;;26.00;99.90;;;;;;5080554;28;20612;-72
2023/06/11 11:08:01;;;;;;;43.10;40.65;;;26.10;99.90;;;;;;5062261;28;20089;-72
2023/06/11 11:10:29;;;;;;;45.90;42.85;;;26.30;99.90;;;;;;5062794;28;20865;-72
2023/06/11 11:12:56;;;;;;;46.33;43.63;;;26.40;99.90;;;;;;5090420;28;20036;-72
2023/06/11 11:15:23;;;;;;;44.75;42.22;;;26.60;99.90;;;;;;5083920;28;20089;-72
2023/06/11 11:17:52;;;;;;;47.20;44.00;;;26.50;99.90;;;;;;5072432;28;20425;-72
2023/06/11 11:20:19;;;;;;;40.50;37.97;;;26.50;99.90;;;;;;5084835;28;20082;-71
2023/06/11 11:22:54;;;;;;;45.15;42.35;;;27.10;99.90;;;;;;5084446;28;20051;-72
2023/06/11 11:25:22;;;;;;;46.00;43.28;;;26.80;99.90;;;;;;5081758;28;20044;-71
2023/06/11 11:27:49;;;;;;;41.50;39.03;;;26.60;99.90;;;;;;5085211;28;20536;-71
2023/06/11 11:30:17;;;;;;;44.70;42.00;;;26.90;99.90;;;;;;5084110;28;20055;-72
2023/06/11 11:32:44;;;;;;;44.63;41.75;;;27.00;99.90;;;;;;5070097;28;20052;-72
2023/06/11 11:35:13;;;;;;;42.38;39.97;;;27.00;99.90;;;;;;5079081;28;20036;-71
2023/06/11 11:37:40;;;;;;;41.22;38.60;;;27.00;99.90;;;;;;5082156;28;20139;-71
2023/06/11 11:40:08;;;;;;;42.10;39.45;;;27.10;99.90;;;;;;5091817;28;20032;-72
2023/06/11 11:42:47;;;;;;;50.08;47.08;;;26.70;99.90;;;;;;5088834;28;20047;-72
2023/06/11 11:45:14;;;;;;;48.28;45.42;;;26.00;99.90;;;;;;5085762;28;20089;-72
2023/06/11 11:47:43;;;;;;;45.35;42.58;;;26.00;99.90;;;;;;5085742;28;20520;-73
2023/06/11 11:50:21;;;;;;;48.08;45.35;;;26.10;99.40;;;;;;5076087;28;20043;-72
2023/06/11 11:53:08;;;;;;;48.95;45.95;;;26.60;99.50;;;;;;5083068;28;20109;-73
2023/06/11 11:55:39;;;;;;;50.08;47.28;;;27.00;98.20;;;;;;5082552;28;20040;-73
2023/06/11 11:58:25;;;;;;;49.17;46.28;;;27.40;98.30;;;;;;5082003;28;20083;-72
2023/06/11 12:00:56;;;;;;;50.60;47.78;;;27.10;98.70;;;;;;5061404;28;20043;-72
2023/06/11 12:03:23;;;;;;;49.08;46.15;;;27.00;99.10;;;;;;5078658;28;20097;-74
2023/06/11 12:06:08;;;;;;;52.15;49.25;;;27.20;98.30;;;;;;5088303;28;20046;-71
2023/06/11 12:08:36;;;;;;;49.58;46.75;;;27.10;96.80;;;;;;5088029;28;20250;-72
2023/06/11 12:11:06;;;;;;;47.50;44.80;;;27.00;97.60;;;;;;5087763;28;20352;-72
2023/06/11 12:13:33;;;;;;;50.38;47.35;;;27.30;98.00;;;;;;5089068;28;20460;-72
2023/06/11 12:16:00;;;;;;;48.88;46.08;;;27.50;97.70;;;;;;5076387;28;20152;-72
2023/06/11 12:18:31;;;;;;;50.58;47.58;;;27.70;96.80;;;;;;5084953;28;20495;-72
2023/06/11 12:20:58;;;;;;;51.65;48.55;;;27.80;96.50;;;;;;5080463;28;20456;-72
2023/06/11 12:23:25;;;;;;;49.38;46.20;;;27.40;96.90;;;;;;5087913;28;22627;-72
2023/06/11 12:25:52;;;;;;;51.35;48.28;;;27.80;96.40;;;;;;5081142;28;20125;-73
2023/06/11 12:28:19;;;;;;;49.63;46.63;;;27.90;96.20;;;;;;5077862;28;20048;-73
2023/06/11 12:30:45;;;;;;;49.38;46.60;;;28.10;95.40;;;;;;5058346;28;20160;-73
2023/06/11 12:33:12;;;;;;;52.28;49.28;;;27.80;97.50;;;;;;5084330;28;20035;-73
2023/06/11 12:35:40;;;;;;;50.50;47.42;;;27.80;96.50;;;;;;5083757;28;20083;-73